sensor_id;sensor_type;location;lat;lon;timestamp;P1;durP1;ratioP1;P2;durP2;ratioP2
9942;SDS011;5010;45.080;7.634;2023-02-01T00:02:01;14.07;;;11.75;;
9942;SDS011;5010;45.080;7.634;2023-02-01T00:04:28;13.15;;;11.90;;
9942;SDS011;5010;45.080;7.634;2023-02-01T00:06:55;15.77;;;11.95;;
9942;SDS011;5010;45.080;7.634;2023-02-01T00:09:22;14.73;;;12.57;;
9942;SDS011;5010;45.080;7.634;2023-02-01T00:11:49;15.23;;;12.95;;
9942;SDS011;5010;45.080;7.634;2023-02-01T00:14:17;18.05;;;13.98;;
9942;SDS011;5010;45.080;7.634;2023-02-01T00:16:44;13.57;;;12.52;;
9942;SDS011;5010;45.080;7.634;2023-02-01T00:19:12;15.30;;;11.10;;
9942;SDS011;5010;45.080;7.634;2023-02-01T00:21:40;14.75;;;12.88;;
9942;SDS011;5010;45.080;7.634;2023-02-01T00:24:09;11.70;;;11.00;;
9942;SDS011;5010;45.080;7.634;2023-02-01T00:26:36;16.85;;;10.88;;
9942;SDS011;5010;45.080;7.634;2023-02-01T00:29:06;12.43;;;10.88;;
9942;SDS011;5010;45.080;7.634;2023-02-01T00:31:37;14.93;;;11.98;;
9942;SDS011;5010;45.080;7.634;2023-02-01T00:34:04;14.02;;;13.35;;
9942;SDS011;5010;45.080;7.634;2023-02-01T00:36:33;14.15;;;12.35;;
9942;SDS011;5010;45.080;7.634;2023-02-01T00:39:00;15.35;;;12.93;;
9942;SDS011;5010;45.080;7.634;2023-02-01T00:41:27;14.15;;;11.60;;
9942;SDS011;5010;45.080;7.634;2023-02-01T00:43:54;22.85;;;12.55;;
9942;SDS011;5010;45.080;7.634;2023-02-01T00:46:21;16.88;;;12.20;;
9942;SDS011;5010;45.080;7.634;2023-02-01T00:48:49;19.15;;;12.63;;
9942;SDS011;5010;45.080;7.634;2023-02-01T00:51:19;12.55;;;9.77;;
9942;SDS011;5010;45.080;7.634;2023-02-01T00:53:48;14.27;;;12.80;;
9942;SDS011;5010;45.080;7.634;2023-02-01T00:56:15;14.30;;;11.20;;
9942;SDS011;5010;45.080;7.634;2023-02-01T00:58:42;18.30;;;12.25;;
9942;SDS011;5010;45.080;7.634;2023-02-01T01:01:10;16.45;;;12.15;;
9942;SDS011;5010;45.080;7.634;2023-02-01T01:03:40;17.80;;;12.13;;
9942;SDS011;5010;45.080;7.634;2023-02-01T01:06:10;13.40;;;11.60;;
9942;SDS011;5010;45.080;7.634;2023-02-01T01:08:39;16.45;;;10.40;;
9942;SDS011;5010;45.080;7.634;2023-02-01T01:11:06;16.98;;;13.55;;
9942;SDS011;5010;45.080;7.634;2023-02-01T01:13:34;12.82;;;11.52;;
9942;SDS011;5010;45.080;7.634;2023-02-01T01:16:02;12.30;;;10.93;;
9942;SDS011;5010;45.080;7.634;2023-02-01T01:18:29;17.25;;;13.70;;
9942;SDS011;5010;45.080;7.634;2023-02-01T01:20:58;14.13;;;11.52;;
9942;SDS011;5010;45.080;7.634;2023-02-01T01:23:27;13.00;;;11.27;;
9942;SDS011;5010;45.080;7.634;2023-02-01T01:25:53;17.25;;;14.65;;
9942;SDS011;5010;45.080;7.634;2023-02-01T01:28:20;14.00;;;12.82;;
9942;SDS011;5010;45.080;7.634;2023-02-01T01:30:47;15.70;;;11.43;;
9942;SDS011;5010;45.080;7.634;2023-02-01T01:33:14;14.73;;;12.50;;
9942;SDS011;5010;45.080;7.634;2023-02-01T01:35:41;17.13;;;12.00;;
9942;SDS011;5010;45.080;7.634;2023-02-01T01:38:09;13.85;;;11.90;;
9942;SDS011;5010;45.080;7.634;2023-02-01T01:40:37;14.63;;;12.05;;
9942;SDS011;5010;45.080;7.634;2023-02-01T01:43:08;13.73;;;12.00;;
9942;SDS011;5010;45.080;7.634;2023-02-01T01:45:40;15.23;;;12.95;;
9942;SDS011;5010;45.080;7.634;2023-02-01T01:48:07;15.80;;;13.25;;
9942;SDS011;5010;45.080;7.634;2023-02-01T01:50:39;13.82;;;12.85;;
9942;SDS011;5010;45.080;7.634;2023-02-01T01:53:13;16.63;;;11.18;;
9942;SDS011;5010;45.080;7.634;2023-02-01T01:55:45;14.98;;;13.40;;
9942;SDS011;5010;45.080;7.634;2023-02-01T01:58:15;15.82;;;12.82;;
9942;SDS011;5010;45.080;7.634;2023-02-01T02:00:44;15.48;;;12.68;;
9942;SDS011;5010;45.080;7.634;2023-02-01T02:03:13;15.45;;;14.65;;
9942;SDS011;5010;45.080;7.634;2023-02-01T02:05:43;17.48;;;12.52;;
9942;SDS011;5010;45.080;7.634;2023-02-01T02:08:11;12.93;;;12.18;;
9942;SDS011;5010;45.080;7.634;2023-02-01T02:10:38;13.23;;;12.52;;
9942;SDS011;5010;45.080;7.634;2023-02-01T02:13:24;16.73;;;14.52;;
9942;SDS011;5010;45.080;7.634;2023-02-01T02:15:54;13.43;;;12.05;;
9942;SDS011;5010;45.080;7.634;2023-02-01T02:18:32;16.55;;;13.15;;
9942;SDS011;5010;45.080;7.634;2023-02-01T02:21:14;11.82;;;11.23;;
9942;SDS011;5010;45.080;7.634;2023-02-01T02:26:57;13.38;;;12.20;;
9942;SDS011;5010;45.080;7.634;2023-02-01T02:30:02;14.38;;;12.23;;
9942;SDS011;5010;45.080;7.634;2023-02-01T02:36:09;12.52;;;11.23;;
9942;SDS011;5010;45.080;7.634;2023-02-01T02:38:43;14.68;;;13.73;;
9942;SDS011;5010;45.080;7.634;2023-02-01T02:41:16;13.82;;;12.18;;
9942;SDS011;5010;45.080;7.634;2023-02-01T02:44:00;18.50;;;15.00;;
9942;SDS011;5010;45.080;7.634;2023-02-01T02:47:02;15.43;;;12.38;;
9942;SDS011;5010;45.080;7.634;2023-02-01T02:49:55;15.52;;;14.60;;
9942;SDS011;5010;45.080;7.634;2023-02-01T02:52:47;14.90;;;12.95;;
9942;SDS011;5010;45.080;7.634;2023-02-01T02:55:36;13.93;;;12.68;;
9942;SDS011;5010;45.080;7.634;2023-02-01T02:58:05;15.68;;;13.73;;
9942;SDS011;5010;45.080;7.634;2023-02-01T03:00:52;11.98;;;10.45;;
9942;SDS011;5010;45.080;7.634;2023-02-01T03:03:38;12.23;;;11.20;;
9942;SDS011;5010;45.080;7.634;2023-02-01T03:06:24;15.82;;;13.00;;
9942;SDS011;5010;45.080;7.634;2023-02-01T03:08:53;15.73;;;12.65;;
9942;SDS011;5010;45.080;7.634;2023-02-01T03:11:23;13.50;;;12.65;;
9942;SDS011;5010;45.080;7.634;2023-02-01T03:14:12;13.65;;;12.93;;
9942;SDS011;5010;45.080;7.634;2023-02-01T03:16:41;12.52;;;11.55;;
9942;SDS011;5010;45.080;7.634;2023-02-01T03:19:14;15.73;;;13.40;;
9942;SDS011;5010;45.080;7.634;2023-02-01T03:21:47;14.38;;;12.80;;
9942;SDS011;5010;45.080;7.634;2023-02-01T03:24:17;12.90;;;12.10;;
9942;SDS011;5010;45.080;7.634;2023-02-01T03:26:58;13.15;;;12.15;;
9942;SDS011;5010;45.080;7.634;2023-02-01T03:29:35;18.63;;;14.15;;
9942;SDS011;5010;45.080;7.634;2023-02-01T03:32:06;13.30;;;11.45;;
9942;SDS011;5010;45.080;7.634;2023-02-01T03:34:34;14.65;;;13.35;;
9942;SDS011;5010;45.080;7.634;2023-02-01T03:37:03;16.63;;;14.35;;
9942;SDS011;5010;45.080;7.634;2023-02-01T03:39:34;17.27;;;13.80;;
9942;SDS011;5010;45.080;7.634;2023-02-01T03:42:04;14.27;;;13.52;;
9942;SDS011;5010;45.080;7.634;2023-02-01T03:44:37;16.23;;;12.43;;
9942;SDS011;5010;45.080;7.634;2023-02-01T03:47:07;14.65;;;12.15;;
9942;SDS011;5010;45.080;7.634;2023-02-01T03:49:39;15.48;;;12.10;;
9942;SDS011;5010;45.080;7.634;2023-02-01T03:52:10;15.43;;;14.63;;
9942;SDS011;5010;45.080;7.634;2023-02-01T03:54:40;15.43;;;14.25;;
9942;SDS011;5010;45.080;7.634;2023-02-01T03:57:10;15.07;;;11.57;;
9942;SDS011;5010;45.080;7.634;2023-02-01T03:59:39;13.73;;;11.80;;
9942;SDS011;5010;45.080;7.634;2023-02-01T04:02:06;14.45;;;12.95;;
9942;SDS011;5010;45.080;7.634;2023-02-01T04:04:33;18.15;;;12.88;;
9942;SDS011;5010;45.080;7.634;2023-02-01T04:07:01;12.70;;;11.23;;
9942;SDS011;5010;45.080;7.634;2023-02-01T04:09:29;13.68;;;11.10;;
9942;SDS011;5010;45.080;7.634;2023-02-01T04:11:56;14.25;;;12.05;;
9942;SDS011;5010;45.080;7.634;2023-02-01T04:14:23;13.30;;;10.38;;
9942;SDS011;5010;45.080;7.634;2023-02-01T04:16:50;12.57;;;11.15;;
9942;SDS011;5010;45.080;7.634;2023-02-01T04:19:17;13.40;;;12.00;;
9942;SDS011;5010;45.080;7.634;2023-02-01T04:21:43;14.77;;;12.48;;
9942;SDS011;5010;45.080;7.634;2023-02-01T04:24:10;14.95;;;12.05;;
9942;SDS011;5010;45.080;7.634;2023-02-01T04:26:38;17.13;;;11.48;;
9942;SDS011;5010;45.080;7.634;2023-02-01T04:29:05;14.93;;;12.60;;
9942;SDS011;5010;45.080;7.634;2023-02-01T04:31:34;14.73;;;12.65;;
9942;SDS011;5010;45.080;7.634;2023-02-01T04:34:01;13.40;;;12.10;;
9942;SDS011;5010;45.080;7.634;2023-02-01T04:36:28;13.30;;;12.40;;
9942;SDS011;5010;45.080;7.634;2023-02-01T04:38:55;12.57;;;11.73;;
9942;SDS011;5010;45.080;7.634;2023-02-01T04:41:22;12.85;;;10.15;;
9942;SDS011;5010;45.080;7.634;2023-02-01T04:43:50;13.63;;;10.98;;
9942;SDS011;5010;45.080;7.634;2023-02-01T04:46:18;13.32;;;12.45;;
9942;SDS011;5010;45.080;7.634;2023-02-01T04:48:44;12.70;;;10.63;;
9942;SDS011;5010;45.080;7.634;2023-02-01T04:51:11;11.93;;;10.40;;
9942;SDS011;5010;45.080;7.634;2023-02-01T04:53:40;15.38;;;11.65;;
9942;SDS011;5010;45.080;7.634;2023-02-01T04:56:07;15.60;;;11.13;;
9942;SDS011;5010;45.080;7.634;2023-02-01T04:58:34;12.18;;;10.68;;
9942;SDS011;5010;45.080;7.634;2023-02-01T05:01:03;12.48;;;9.95;;
9942;SDS011;5010;45.080;7.634;2023-02-01T05:03:30;12.90;;;11.77;;
9942;SDS011;5010;45.080;7.634;2023-02-01T05:05:57;14.20;;;11.13;;
9942;SDS011;5010;45.080;7.634;2023-02-01T05:08:24;13.00;;;11.27;;
9942;SDS011;5010;45.080;7.634;2023-02-01T05:10:52;13.73;;;10.05;;
9942;SDS011;5010;45.080;7.634;2023-02-01T05:13:19;12.55;;;11.80;;
9942;SDS011;5010;45.080;7.634;2023-02-01T05:16:05;15.38;;;12.70;;
9942;SDS011;5010;45.080;7.634;2023-02-01T05:18:32;11.45;;;10.85;;
9942;SDS011;5010;45.080;7.634;2023-02-01T05:20:59;13.75;;;10.90;;
9942;SDS011;5010;45.080;7.634;2023-02-01T05:23:26;13.30;;;10.52;;
9942;SDS011;5010;45.080;7.634;2023-02-01T05:25:57;10.35;;;9.82;;
9942;SDS011;5010;45.080;7.634;2023-02-01T05:28:24;13.50;;;10.93;;
9942;SDS011;5010;45.080;7.634;2023-02-01T05:30:51;13.35;;;11.52;;
9942;SDS011;5010;45.080;7.634;2023-02-01T05:33:19;11.43;;;10.38;;
9942;SDS011;5010;45.080;7.634;2023-02-01T05:35:46;12.55;;;11.95;;
9942;SDS011;5010;45.080;7.634;2023-02-01T05:38:13;13.23;;;11.73;;
9942;SDS011;5010;45.080;7.634;2023-02-01T05:40:40;13.68;;;12.98;;
9942;SDS011;5010;45.080;7.634;2023-02-01T05:43:07;13.93;;;11.70;;
9942;SDS011;5010;45.080;7.634;2023-02-01T05:45:33;12.07;;;10.90;;
9942;SDS011;5010;45.080;7.634;2023-02-01T05:48:00;14.80;;;12.75;;
9942;SDS011;5010;45.080;7.634;2023-02-01T05:50:28;11.77;;;10.90;;
9942;SDS011;5010;45.080;7.634;2023-02-01T05:52:55;13.23;;;10.25;;
9942;SDS011;5010;45.080;7.634;2023-02-01T05:55:22;12.13;;;9.35;;
9942;SDS011;5010;45.080;7.634;2023-02-01T05:57:49;13.93;;;9.35;;
9942;SDS011;5010;45.080;7.634;2023-02-01T06:00:16;12.23;;;10.43;;
9942;SDS011;5010;45.080;7.634;2023-02-01T06:02:44;11.88;;;9.82;;
9942;SDS011;5010;45.080;7.634;2023-02-01T06:05:10;14.05;;;11.32;;
9942;SDS011;5010;45.080;7.634;2023-02-01T06:07:39;11.98;;;10.48;;
9942;SDS011;5010;45.080;7.634;2023-02-01T06:10:06;12.23;;;10.20;;
9942;SDS011;5010;45.080;7.634;2023-02-01T06:12:33;13.23;;;12.55;;
9942;SDS011;5010;45.080;7.634;2023-02-01T06:15:00;13.35;;;11.05;;
9942;SDS011;5010;45.080;7.634;2023-02-01T06:17:27;12.50;;;10.25;;
9942;SDS011;5010;45.080;7.634;2023-02-01T06:19:54;11.82;;;9.13;;
9942;SDS011;5010;45.080;7.634;2023-02-01T06:22:20;14.20;;;10.38;;
9942;SDS011;5010;45.080;7.634;2023-02-01T06:24:49;10.48;;;8.48;;
9942;SDS011;5010;45.080;7.634;2023-02-01T06:27:15;11.90;;;10.20;;
9942;SDS011;5010;45.080;7.634;2023-02-01T06:29:42;12.13;;;10.73;;
9942;SDS011;5010;45.080;7.634;2023-02-01T06:32:09;13.15;;;9.98;;
9942;SDS011;5010;45.080;7.634;2023-02-01T06:34:36;12.80;;;10.48;;
9942;SDS011;5010;45.080;7.634;2023-02-01T06:37:04;10.60;;;9.95;;
9942;SDS011;5010;45.080;7.634;2023-02-01T06:39:31;12.15;;;10.13;;
9942;SDS011;5010;45.080;7.634;2023-02-01T06:41:59;11.20;;;10.23;;
9942;SDS011;5010;45.080;7.634;2023-02-01T06:44:26;17.25;;;9.93;;
9942;SDS011;5010;45.080;7.634;2023-02-01T06:46:53;11.75;;;10.10;;
9942;SDS011;5010;45.080;7.634;2023-02-01T06:49:20;10.73;;;10.13;;
9942;SDS011;5010;45.080;7.634;2023-02-01T06:51:47;10.43;;;9.55;;
9942;SDS011;5010;45.080;7.634;2023-02-01T06:54:13;12.45;;;10.65;;
9942;SDS011;5010;45.080;7.634;2023-02-01T06:56:40;12.00;;;10.88;;
9942;SDS011;5010;45.080;7.634;2023-02-01T06:59:09;14.18;;;12.25;;
9942;SDS011;5010;45.080;7.634;2023-02-01T07:01:37;10.77;;;9.18;;
9942;SDS011;5010;45.080;7.634;2023-02-01T07:04:04;10.60;;;8.98;;
9942;SDS011;5010;45.080;7.634;2023-02-01T07:06:31;11.60;;;10.82;;
9942;SDS011;5010;45.080;7.634;2023-02-01T07:08:57;11.30;;;9.90;;
9942;SDS011;5010;45.080;7.634;2023-02-01T07:11:25;12.65;;;9.45;;
9942;SDS011;5010;45.080;7.634;2023-02-01T07:13:53;10.80;;;10.20;;
9942;SDS011;5010;45.080;7.634;2023-02-01T07:16:21;15.27;;;10.30;;
9942;SDS011;5010;45.080;7.634;2023-02-01T07:18:49;12.75;;;10.00;;
9942;SDS011;5010;45.080;7.634;2023-02-01T07:21:16;13.43;;;10.85;;
9942;SDS011;5010;45.080;7.634;2023-02-01T07:23:43;13.18;;;11.20;;
9942;SDS011;5010;45.080;7.634;2023-02-01T07:26:11;13.07;;;10.85;;
9942;SDS011;5010;45.080;7.634;2023-02-01T07:28:39;10.90;;;9.70;;
9942;SDS011;5010;45.080;7.634;2023-02-01T07:31:07;11.48;;;10.18;;
9942;SDS011;5010;45.080;7.634;2023-02-01T07:33:37;16.35;;;10.25;;
9942;SDS011;5010;45.080;7.634;2023-02-01T07:36:05;11.88;;;11.30;;
9942;SDS011;5010;45.080;7.634;2023-02-01T07:38:33;11.55;;;9.70;;
9942;SDS011;5010;45.080;7.634;2023-02-01T07:41:00;11.27;;;10.32;;
9942;SDS011;5010;45.080;7.634;2023-02-01T07:43:29;14.23;;;9.10;;
9942;SDS011;5010;45.080;7.634;2023-02-01T07:45:58;11.38;;;9.70;;
9942;SDS011;5010;45.080;7.634;2023-02-01T07:48:25;13.48;;;10.32;;
9942;SDS011;5010;45.080;7.634;2023-02-01T07:50:57;12.63;;;9.88;;
9942;SDS011;5010;45.080;7.634;2023-02-01T07:53:25;11.43;;;8.57;;
9942;SDS011;5010;45.080;7.634;2023-02-01T07:55:52;14.50;;;11.13;;
9942;SDS011;5010;45.080;7.634;2023-02-01T07:58:21;14.23;;;12.65;;
9942;SDS011;5010;45.080;7.634;2023-02-01T08:00:48;12.90;;;9.95;;
9942;SDS011;5010;45.080;7.634;2023-02-01T08:03:37;11.75;;;9.70;;
9942;SDS011;5010;45.080;7.634;2023-02-01T08:06:05;13.70;;;13.00;;
9942;SDS011;5010;45.080;7.634;2023-02-01T08:08:33;14.02;;;12.02;;
9942;SDS011;5010;45.080;7.634;2023-02-01T08:11:00;14.68;;;11.77;;
9942;SDS011;5010;45.080;7.634;2023-02-01T08:13:28;12.13;;;8.80;;
9942;SDS011;5010;45.080;7.634;2023-02-01T08:15:57;10.70;;;9.20;;
9942;SDS011;5010;45.080;7.634;2023-02-01T08:18:24;16.65;;;10.98;;
9942;SDS011;5010;45.080;7.634;2023-02-01T08:20:52;12.45;;;11.18;;
9942;SDS011;5010;45.080;7.634;2023-02-01T08:23:20;12.32;;;11.23;;
9942;SDS011;5010;45.080;7.634;2023-02-01T08:25:47;12.93;;;11.82;;
9942;SDS011;5010;45.080;7.634;2023-02-01T08:28:14;18.65;;;12.93;;
9942;SDS011;5010;45.080;7.634;2023-02-01T08:30:41;14.23;;;13.05;;
9942;SDS011;5010;45.080;7.634;2023-02-01T08:33:08;13.85;;;11.90;;
9942;SDS011;5010;45.080;7.634;2023-02-01T08:35:37;14.48;;;13.63;;
9942;SDS011;5010;45.080;7.634;2023-02-01T08:38:04;14.75;;;13.98;;
9942;SDS011;5010;45.080;7.634;2023-02-01T08:40:33;16.50;;;15.57;;
9942;SDS011;5010;45.080;7.634;2023-02-01T08:42:59;15.05;;;13.15;;
9942;SDS011;5010;45.080;7.634;2023-02-01T08:45:27;16.73;;;14.90;;
9942;SDS011;5010;45.080;7.634;2023-02-01T08:47:55;17.30;;;11.48;;
9942;SDS011;5010;45.080;7.634;2023-02-01T08:50:23;14.55;;;12.85;;
9942;SDS011;5010;45.080;7.634;2023-02-01T08:52:50;15.52;;;12.73;;
9942;SDS011;5010;45.080;7.634;2023-02-01T08:55:18;15.25;;;14.23;;
9942;SDS011;5010;45.080;7.634;2023-02-01T08:57:46;15.30;;;13.23;;
9942;SDS011;5010;45.080;7.634;2023-02-01T09:00:14;15.10;;;13.75;;
9942;SDS011;5010;45.080;7.634;2023-02-01T09:02:42;14.40;;;13.23;;
9942;SDS011;5010;45.080;7.634;2023-02-01T09:05:09;15.23;;;13.10;;
9942;SDS011;5010;45.080;7.634;2023-02-01T09:07:36;14.30;;;12.25;;
9942;SDS011;5010;45.080;7.634;2023-02-01T09:10:03;27.55;;;13.98;;
9942;SDS011;5010;45.080;7.634;2023-02-01T09:12:32;13.63;;;12.30;;
9942;SDS011;5010;45.080;7.634;2023-02-01T09:15:01;16.08;;;12.35;;
9942;SDS011;5010;45.080;7.634;2023-02-01T09:17:28;16.58;;;12.48;;
9942;SDS011;5010;45.080;7.634;2023-02-01T09:19:56;16.00;;;11.90;;
9942;SDS011;5010;45.080;7.634;2023-02-01T09:22:22;12.45;;;11.25;;
9942;SDS011;5010;45.080;7.634;2023-02-01T09:24:49;14.35;;;13.63;;
9942;SDS011;5010;45.080;7.634;2023-02-01T09:27:17;18.75;;;15.00;;
9942;SDS011;5010;45.080;7.634;2023-02-01T09:29:44;14.32;;;13.63;;
9942;SDS011;5010;45.080;7.634;2023-02-01T09:32:15;14.02;;;13.32;;
9942;SDS011;5010;45.080;7.634;2023-02-01T09:34:42;15.27;;;14.50;;
9942;SDS011;5010;45.080;7.634;2023-02-01T09:37:09;16.63;;;14.35;;
9942;SDS011;5010;45.080;7.634;2023-02-01T09:39:36;16.30;;;15.13;;
9942;SDS011;5010;45.080;7.634;2023-02-01T09:42:06;14.95;;;13.02;;
9942;SDS011;5010;45.080;7.634;2023-02-01T09:44:46;15.40;;;14.60;;
9942;SDS011;5010;45.080;7.634;2023-02-01T09:47:25;17.33;;;15.38;;
9942;SDS011;5010;45.080;7.634;2023-02-01T09:49:54;13.45;;;12.65;;
9942;SDS011;5010;45.080;7.634;2023-02-01T09:52:27;13.95;;;12.98;;
9942;SDS011;5010;45.080;7.634;2023-02-01T09:54:59;15.38;;;11.77;;
9942;SDS011;5010;45.080;7.634;2023-02-01T09:57:33;16.35;;;12.30;;
9942;SDS011;5010;45.080;7.634;2023-02-01T10:00:12;15.32;;;13.75;;
9942;SDS011;5010;45.080;7.634;2023-02-01T10:02:45;15.18;;;14.38;;
9942;SDS011;5010;45.080;7.634;2023-02-01T10:05:13;17.70;;;13.50;;
9942;SDS011;5010;45.080;7.634;2023-02-01T10:07:43;14.60;;;13.40;;
9942;SDS011;5010;45.080;7.634;2023-02-01T10:10:17;17.70;;;13.23;;
9942;SDS011;5010;45.080;7.634;2023-02-01T10:12:56;13.90;;;12.60;;
9942;SDS011;5010;45.080;7.634;2023-02-01T10:15:40;12.60;;;11.95;;
9942;SDS011;5010;45.080;7.634;2023-02-01T10:18:24;24.55;;;13.50;;
9942;SDS011;5010;45.080;7.634;2023-02-01T10:21:09;15.10;;;12.55;;
9942;SDS011;5010;45.080;7.634;2023-02-01T10:23:54;15.15;;;12.40;;
9942;SDS011;5010;45.080;7.634;2023-02-01T10:26:45;13.00;;;12.30;;
9942;SDS011;5010;45.080;7.634;2023-02-01T10:29:18;18.92;;;12.60;;
9942;SDS011;5010;45.080;7.634;2023-02-01T10:31:46;13.57;;;11.95;;
9942;SDS011;5010;45.080;7.634;2023-02-01T10:34:17;15.60;;;12.30;;
9942;SDS011;5010;45.080;7.634;2023-02-01T10:36:52;16.33;;;12.88;;
9942;SDS011;5010;45.080;7.634;2023-02-01T10:39:21;14.10;;;12.25;;
9942;SDS011;5010;45.080;7.634;2023-02-01T10:41:49;14.50;;;13.80;;
9942;SDS011;5010;45.080;7.634;2023-02-01T10:44:16;14.02;;;11.98;;
9942;SDS011;5010;45.080;7.634;2023-02-01T10:46:47;14.60;;;13.32;;
9942;SDS011;5010;45.080;7.634;2023-02-01T10:49:17;14.32;;;12.65;;
9942;SDS011;5010;45.080;7.634;2023-02-01T10:51:46;18.40;;;12.85;;
9942;SDS011;5010;45.080;7.634;2023-02-01T10:54:17;13.52;;;11.23;;
9942;SDS011;5010;45.080;7.634;2023-02-01T10:56:45;14.77;;;12.57;;
9942;SDS011;5010;45.080;7.634;2023-02-01T10:59:17;14.05;;;11.73;;
9942;SDS011;5010;45.080;7.634;2023-02-01T11:01:46;15.50;;;11.45;;
9942;SDS011;5010;45.080;7.634;2023-02-01T11:04:16;13.52;;;10.30;;
9942;SDS011;5010;45.080;7.634;2023-02-01T11:06:46;15.65;;;12.32;;
9942;SDS011;5010;45.080;7.634;2023-02-01T11:09:16;13.95;;;12.88;;
9942;SDS011;5010;45.080;7.634;2023-02-01T11:11:53;12.07;;;11.02;;
9942;SDS011;5010;45.080;7.634;2023-02-01T11:14:33;17.13;;;12.80;;
9942;SDS011;5010;45.080;7.634;2023-02-01T11:17:12;11.98;;;9.35;;
9942;SDS011;5010;45.080;7.634;2023-02-01T11:19:54;10.88;;;10.20;;
9942;SDS011;5010;45.080;7.634;2023-02-01T11:22:24;14.52;;;11.95;;
9942;SDS011;5010;45.080;7.634;2023-02-01T11:24:52;14.07;;;11.60;;
9942;SDS011;5010;45.080;7.634;2023-02-01T11:27:20;13.27;;;11.23;;
9942;SDS011;5010;45.080;7.634;2023-02-01T11:29:50;15.52;;;11.90;;
9942;SDS011;5010;45.080;7.634;2023-02-01T11:32:19;13.40;;;11.60;;
9942;SDS011;5010;45.080;7.634;2023-02-01T11:34:49;18.05;;;15.43;;
9942;SDS011;5010;45.080;7.634;2023-02-01T11:37:22;18.85;;;16.60;;
9942;SDS011;5010;45.080;7.634;2023-02-01T11:39:55;16.77;;;12.98;;
9942;SDS011;5010;45.080;7.634;2023-02-01T11:42:24;17.33;;;13.00;;
9942;SDS011;5010;45.080;7.634;2023-02-01T11:45:09;17.80;;;14.68;;
9942;SDS011;5010;45.080;7.634;2023-02-01T11:47:43;16.50;;;12.77;;
9942;SDS011;5010;45.080;7.634;2023-02-01T11:50:14;13.77;;;13.05;;
9942;SDS011;5010;45.080;7.634;2023-02-01T11:52:54;13.45;;;11.65;;
9942;SDS011;5010;45.080;7.634;2023-02-01T11:55:45;18.17;;;13.25;;
9942;SDS011;5010;45.080;7.634;2023-02-01T12:01:24;11.13;;;10.43;;
9942;SDS011;5010;45.080;7.634;2023-02-01T12:06:53;13.88;;;12.45;;
9942;SDS011;5010;45.080;7.634;2023-02-01T12:09:32;14.73;;;11.60;;
9942;SDS011;5010;45.080;7.634;2023-02-01T12:12:22;14.35;;;11.75;;
9942;SDS011;5010;45.080;7.634;2023-02-01T12:14:59;12.50;;;10.27;;
9942;SDS011;5010;45.080;7.634;2023-02-01T12:17:41;13.77;;;12.43;;
9942;SDS011;5010;45.080;7.634;2023-02-01T12:20:20;15.82;;;11.50;;
9942;SDS011;5010;45.080;7.634;2023-02-01T12:23:02;15.13;;;11.63;;
9942;SDS011;5010;45.080;7.634;2023-02-01T12:25:44;13.27;;;10.32;;
9942;SDS011;5010;45.080;7.634;2023-02-01T12:28:41;12.95;;;10.32;;
9942;SDS011;5010;45.080;7.634;2023-02-01T12:31:43;12.43;;;11.23;;
9942;SDS011;5010;45.080;7.634;2023-02-01T12:34:29;14.88;;;12.38;;
9942;SDS011;5010;45.080;7.634;2023-02-01T12:37:09;15.32;;;12.55;;
9942;SDS011;5010;45.080;7.634;2023-02-01T12:39:52;12.98;;;11.70;;
9942;SDS011;5010;45.080;7.634;2023-02-01T12:42:27;17.73;;;13.40;;
9942;SDS011;5010;45.080;7.634;2023-02-01T12:44:59;12.80;;;10.95;;
9942;SDS011;5010;45.080;7.634;2023-02-01T12:47:36;14.95;;;12.70;;
9942;SDS011;5010;45.080;7.634;2023-02-01T12:50:12;14.77;;;11.57;;
9942;SDS011;5010;45.080;7.634;2023-02-01T12:52:44;11.65;;;11.05;;
9942;SDS011;5010;45.080;7.634;2023-02-01T12:55:17;14.75;;;11.68;;
9942;SDS011;5010;45.080;7.634;2023-02-01T12:57:49;13.00;;;11.88;;
9942;SDS011;5010;45.080;7.634;2023-02-01T13:00:22;13.90;;;11.35;;
9942;SDS011;5010;45.080;7.634;2023-02-01T13:02:54;12.30;;;11.02;;
9942;SDS011;5010;45.080;7.634;2023-02-01T13:05:27;15.00;;;12.50;;
9942;SDS011;5010;45.080;7.634;2023-02-01T13:07:58;12.48;;;11.85;;
9942;SDS011;5010;45.080;7.634;2023-02-01T13:10:31;16.00;;;11.77;;
9942;SDS011;5010;45.080;7.634;2023-02-01T13:13:02;11.60;;;10.13;;
9942;SDS011;5010;45.080;7.634;2023-02-01T13:15:38;13.32;;;9.60;;
9942;SDS011;5010;45.080;7.634;2023-02-01T13:18:09;12.98;;;10.32;;
9942;SDS011;5010;45.080;7.634;2023-02-01T13:20:42;11.00;;;10.40;;
9942;SDS011;5010;45.080;7.634;2023-02-01T13:23:17;11.98;;;11.38;;
9942;SDS011;5010;45.080;7.634;2023-02-01T13:25:51;12.68;;;10.52;;
9942;SDS011;5010;45.080;7.634;2023-02-01T13:28:22;11.82;;;10.63;;
9942;SDS011;5010;45.080;7.634;2023-02-01T13:31:03;11.73;;;11.13;;
9942;SDS011;5010;45.080;7.634;2023-02-01T13:33:52;10.68;;;10.02;;
9942;SDS011;5010;45.080;7.634;2023-02-01T13:36:37;12.57;;;10.55;;
9942;SDS011;5010;45.080;7.634;2023-02-01T13:39:35;14.88;;;13.07;;
9942;SDS011;5010;45.080;7.634;2023-02-01T13:42:17;12.32;;;10.23;;
9942;SDS011;5010;45.080;7.634;2023-02-01T13:44:48;13.93;;;11.85;;
9942;SDS011;5010;45.080;7.634;2023-02-01T13:47:24;10.88;;;10.27;;
9942;SDS011;5010;45.080;7.634;2023-02-01T13:49:54;12.13;;;11.50;;
9942;SDS011;5010;45.080;7.634;2023-02-01T13:52:26;13.55;;;11.48;;
9942;SDS011;5010;45.080;7.634;2023-02-01T13:55:02;11.43;;;10.82;;
9942;SDS011;5010;45.080;7.634;2023-02-01T13:57:42;11.88;;;10.63;;
9942;SDS011;5010;45.080;7.634;2023-02-01T14:00:23;12.05;;;10.30;;
9942;SDS011;5010;45.080;7.634;2023-02-01T14:08:45;13.98;;;10.98;;
9942;SDS011;5010;45.080;7.634;2023-02-01T14:11:33;13.05;;;10.60;;
9942;SDS011;5010;45.080;7.634;2023-02-01T14:26:11;10.23;;;9.73;;
9942;SDS011;5010;45.080;7.634;2023-02-01T14:28:49;12.70;;;11.60;;
9942;SDS011;5010;45.080;7.634;2023-02-01T14:31:27;11.23;;;10.55;;
9942;SDS011;5010;45.080;7.634;2023-02-01T14:34:21;15.93;;;10.55;;
9942;SDS011;5010;45.080;7.634;2023-02-01T14:36:55;13.82;;;11.80;;
9942;SDS011;5010;45.080;7.634;2023-02-01T14:39:29;12.77;;;12.07;;
9942;SDS011;5010;45.080;7.634;2023-02-01T14:42:01;16.17;;;10.50;;
9942;SDS011;5010;45.080;7.634;2023-02-01T14:44:31;11.75;;;9.73;;
9942;SDS011;5010;45.080;7.634;2023-02-01T14:47:04;10.40;;;8.95;;
9942;SDS011;5010;45.080;7.634;2023-02-01T14:49:39;12.20;;;9.70;;
9942;SDS011;5010;45.080;7.634;2023-02-01T14:52:16;12.25;;;9.88;;
9942;SDS011;5010;45.080;7.634;2023-02-01T14:54:48;11.75;;;10.00;;
9942;SDS011;5010;45.080;7.634;2023-02-01T14:57:19;12.70;;;10.55;;
9942;SDS011;5010;45.080;7.634;2023-02-01T14:59:48;13.25;;;11.13;;
9942;SDS011;5010;45.080;7.634;2023-02-01T15:02:24;12.10;;;10.43;;
9942;SDS011;5010;45.080;7.634;2023-02-01T15:04:55;10.40;;;9.88;;
9942;SDS011;5010;45.080;7.634;2023-02-01T15:07:22;10.75;;;9.75;;
9942;SDS011;5010;45.080;7.634;2023-02-01T15:09:50;12.35;;;11.52;;
9942;SDS011;5010;45.080;7.634;2023-02-01T15:12:23;15.32;;;10.43;;
9942;SDS011;5010;45.080;7.634;2023-02-01T15:15:10;10.15;;;9.65;;
9942;SDS011;5010;45.080;7.634;2023-02-01T15:17:39;11.68;;;9.82;;
9942;SDS011;5010;45.080;7.634;2023-02-01T15:20:14;11.70;;;10.55;;
9942;SDS011;5010;45.080;7.634;2023-02-01T15:22:51;15.02;;;9.95;;
9942;SDS011;5010;45.080;7.634;2023-02-01T15:25:21;11.95;;;10.88;;
9942;SDS011;5010;45.080;7.634;2023-02-01T15:27:49;13.30;;;9.55;;
9942;SDS011;5010;45.080;7.634;2023-02-01T15:30:17;14.73;;;10.50;;
9942;SDS011;5010;45.080;7.634;2023-02-01T15:32:45;12.30;;;10.20;;
9942;SDS011;5010;45.080;7.634;2023-02-01T15:35:38;11.38;;;9.23;;
9942;SDS011;5010;45.080;7.634;2023-02-01T15:38:21;12.35;;;9.15;;
9942;SDS011;5010;45.080;7.634;2023-02-01T15:41:01;11.75;;;9.52;;
9942;SDS011;5010;45.080;7.634;2023-02-01T15:43:31;9.75;;;7.88;;
9942;SDS011;5010;45.080;7.634;2023-02-01T15:46:02;11.73;;;9.25;;
9942;SDS011;5010;45.080;7.634;2023-02-01T15:48:36;18.08;;;9.18;;